createdAt,value
2022-10-16T00:01:40.994Z,24.49
2022-10-16T00:04:08.193Z,24.00
2022-10-16T00:06:35.205Z,24.22
2022-10-16T00:09:02.406Z,23.92
2022-10-16T00:11:37.561Z,24.42
2022-10-16T00:14:10.140Z,24.39
2022-10-16T00:16:37.489Z,24.45
2022-10-16T00:19:05.414Z,24.26
2022-10-16T00:21:33.152Z,24.36
2022-10-16T00:24:09.256Z,24.91
2022-10-16T00:26:38.201Z,24.93
2022-10-16T00:29:06.875Z,24.83
2022-10-16T00:31:34.242Z,24.67
2022-10-16T00:34:01.582Z,24.00
2022-10-16T00:36:28.733Z,24.11
2022-10-16T00:38:58.540Z,23.90
2022-10-16T00:41:28.058Z,23.84
2022-10-16T00:44:01.551Z,24.02
2022-10-16T00:46:43.396Z,23.64
2022-10-16T00:49:18.711Z,24.13
2022-10-16T00:51:53.735Z,23.54
2022-10-16T00:54:30.617Z,24.20
2022-10-16T00:57:02.578Z,24.13
2022-10-16T00:59:37.375Z,24.60
2022-10-16T01:02:08.974Z,24.49
2022-10-16T01:04:49.554Z,24.18
2022-10-16T01:07:38.357Z,24.70
2022-10-16T01:10:37.014Z,24.72
2022-10-16T01:13:11.569Z,24.53
2022-10-16T01:15:56.679Z,24.27
2022-10-16T01:18:40.996Z,24.01
2022-10-16T01:21:28.052Z,23.63
2022-10-16T01:24:34.926Z,23.93
2022-10-16T01:27:13.757Z,24.06
2022-10-16T01:29:57.277Z,24.58
2022-10-16T01:32:42.542Z,24.36
2022-10-16T01:35:40.923Z,24.60
2022-10-16T01:38:16.172Z,24.73
2022-10-16T01:40:53.247Z,25.06
2022-10-16T01:43:34.853Z,23.67
2022-10-16T01:46:03.068Z,24.00
2022-10-16T01:48:31.155Z,24.39
2022-10-16T01:51:13.541Z,24.55
2022-10-16T01:53:43.046Z,24.37
2022-10-16T01:56:13.129Z,24.41
2022-10-16T01:58:47.334Z,24.88
2022-10-16T02:01:17.875Z,24.65
2022-10-16T02:03:45.988Z,24.44
2022-10-16T02:06:13.671Z,24.54
2022-10-16T02:08:45.015Z,24.13
2022-10-16T02:11:12.904Z,24.33
2022-10-16T02:14:06.119Z,24.39
2022-10-16T02:16:46.020Z,24.58
2022-10-16T02:19:20.502Z,24.80
2022-10-16T02:22:06.189Z,24.56
2022-10-16T02:25:04.200Z,24.90
2022-10-16T02:27:45.884Z,24.83
2022-10-16T02:30:28.960Z,24.15
2022-10-16T02:32:58.918Z,23.93
2022-10-16T02:35:28.107Z,24.09
2022-10-16T02:37:56.617Z,24.63
2022-10-16T02:40:25.344Z,24.01
2022-10-16T02:42:55.011Z,24.56
2022-10-16T02:45:23.228Z,24.80
2022-10-16T02:47:50.234Z,24.75
2022-10-16T02:50:17.734Z,24.57
2022-10-16T02:52:44.812Z,24.73
2022-10-16T02:55:11.867Z,24.75
2022-10-16T02:57:41.212Z,24.58
2022-10-16T03:00:15.868Z,24.93
2022-10-16T03:02:43.191Z,24.41
2022-10-16T03:05:11.458Z,24.44
2022-10-16T03:07:38.725Z,24.73
2022-10-16T03:10:06.645Z,24.59
2022-10-16T03:12:33.875Z,24.60
2022-10-16T03:15:01.055Z,24.43
2022-10-16T03:17:28.438Z,24.33
2022-10-16T03:19:55.664Z,24.30
2022-10-16T03:22:22.718Z,23.76
2022-10-16T03:24:49.661Z,24.23
2022-10-16T03:27:16.678Z,24.36
2022-10-16T03:29:43.713Z,24.16
2022-10-16T03:32:10.789Z,24.44
2022-10-16T03:34:37.760Z,24.03
2022-10-16T03:37:04.768Z,23.91
2022-10-16T03:39:31.745Z,24.11
2022-10-16T03:41:58.734Z,23.99
2022-10-16T03:44:25.706Z,24.13
2022-10-16T03:46:52.745Z,24.35
2022-10-16T03:49:19.788Z,24.29
2022-10-16T03:51:46.890Z,24.42
2022-10-16T03:54:13.959Z,24.26
2022-10-16T03:56:40.921Z,23.93
2022-10-16T03:59:07.912Z,24.28
2022-10-16T04:01:34.943Z,23.95
2022-10-16T04:04:01.938Z,24.29
2022-10-16T04:06:28.982Z,24.28
2022-10-16T04:08:55.995Z,24.40
2022-10-16T04:11:23.222Z,24.45
2022-10-16T04:13:50.179Z,24.29
2022-10-16T04:16:17.157Z,24.47
2022-10-16T04:18:44.264Z,24.07
2022-10-16T04:21:11.342Z,24.51
2022-10-16T04:23:38.349Z,24.45
2022-10-16T04:26:05.344Z,24.45
2022-10-16T04:28:32.368Z,24.40
2022-10-16T04:30:59.337Z,24.34
2022-10-16T04:33:26.574Z,23.97
2022-10-16T04:36:01.882Z,24.30
2022-10-16T04:38:29.625Z,24.14
2022-10-16T04:40:56.910Z,24.11
2022-10-16T04:43:24.025Z,24.30
2022-10-16T04:45:52.001Z,24.10
2022-10-16T04:48:19.784Z,24.21
2022-10-16T04:50:51.658Z,24.35
2022-10-16T04:53:22.511Z,23.97
2022-10-16T04:55:49.448Z,23.54
2022-10-16T04:58:16.417Z,23.21
2022-10-16T05:00:43.497Z,24.07
2022-10-16T05:03:10.669Z,24.32
2022-10-16T05:05:38.015Z,24.30
2022-10-16T05:08:05.153Z,24.20
2022-10-16T05:10:32.233Z,24.42
2022-10-16T05:12:59.385Z,24.11
2022-10-16T05:15:26.353Z,24.01
2022-10-16T05:17:55.059Z,23.90
2022-10-16T05:20:23.435Z,23.50
2022-10-16T05:22:50.467Z,23.93
2022-10-16T05:25:17.590Z,24.06
2022-10-16T05:27:44.552Z,24.26
2022-10-16T05:30:12.568Z,24.17
2022-10-16T05:32:42.799Z,24.16
2022-10-16T05:35:12.529Z,24.31
2022-10-16T05:37:39.850Z,24.32
2022-10-16T05:40:07.744Z,24.23
2022-10-16T05:42:35.041Z,24.39
2022-10-16T05:45:02.128Z,24.20
2022-10-16T05:47:29.330Z,23.72
2022-10-16T05:49:56.885Z,23.44
2022-10-16T05:52:23.870Z,23.96
2022-10-16T05:54:50.922Z,23.97
2022-10-16T05:57:17.869Z,23.69
2022-10-16T05:59:44.836Z,23.70
2022-10-16T06:02:15.442Z,23.98
2022-10-16T06:04:42.387Z,23.04
2022-10-16T06:07:09.442Z,23.91
2022-10-16T06:09:36.523Z,24.11
2022-10-16T06:12:03.687Z,24.37
2022-10-16T06:14:30.722Z,24.43
2022-10-16T06:16:57.665Z,24.09
2022-10-16T06:19:24.713Z,24.05
2022-10-16T06:21:51.720Z,24.01
2022-10-16T06:24:18.745Z,24.02
2022-10-16T06:26:45.757Z,24.08
2022-10-16T06:29:12.754Z,24.16
2022-10-16T06:31:40.678Z,24.15
2022-10-16T06:34:12.362Z,24.48
2022-10-16T06:36:40.261Z,24.33
2022-10-16T06:39:08.307Z,24.26
2022-10-16T06:41:35.909Z,24.50
2022-10-16T06:44:15.479Z,24.26
2022-10-16T06:46:42.634Z,24.17
2022-10-16T06:49:09.790Z,24.21
2022-10-16T06:51:43.129Z,24.18
2022-10-16T06:54:10.700Z,24.17
2022-10-16T06:56:37.789Z,23.80
2022-10-16T06:59:05.247Z,24.15
2022-10-16T07:01:33.468Z,24.34
2022-10-16T07:04:02.012Z,24.52
2022-10-16T07:06:34.269Z,24.69
2022-10-16T07:09:07.047Z,24.52
2022-10-16T07:11:34.606Z,24.47
2022-10-16T07:14:01.779Z,24.76
2022-10-16T07:16:31.815Z,24.34
2022-10-16T07:19:01.513Z,24.43
2022-10-16T07:21:36.126Z,24.51
2022-10-16T07:24:04.838Z,24.59
2022-10-16T07:26:34.954Z,24.28
2022-10-16T07:29:02.490Z,24.28
2022-10-16T07:31:29.773Z,24.56
2022-10-16T07:33:59.464Z,24.80
2022-10-16T07:36:26.509Z,24.63
2022-10-16T07:38:57.054Z,24.45
2022-10-16T07:41:27.381Z,24.42
2022-10-16T07:43:55.591Z,24.56
2022-10-16T07:46:24.716Z,24.12
2022-10-16T07:48:51.798Z,24.51
2022-10-16T07:51:22.464Z,24.76
2022-10-16T07:53:50.596Z,24.42
2022-10-16T07:56:18.788Z,24.03
2022-10-16T07:58:46.669Z,24.46
2022-10-16T08:01:16.487Z,24.84
2022-10-16T08:03:50.688Z,24.54
2022-10-16T08:06:21.941Z,24.38
2022-10-16T08:08:52.297Z,24.70
2022-10-16T08:11:19.288Z,24.48
2022-10-16T08:13:46.310Z,24.74
2022-10-16T08:16:13.482Z,24.80
2022-10-16T08:18:41.829Z,24.94
2022-10-16T08:21:20.205Z,24.27
2022-10-16T08:23:53.065Z,24.43
2022-10-16T08:26:27.335Z,24.69
2022-10-16T08:28:55.582Z,24.67
2022-10-16T08:31:23.187Z,24.45
2022-10-16T08:33:52.228Z,24.52
2022-10-16T08:36:19.292Z,24.64
2022-10-16T08:38:58.045Z,24.49
2022-10-16T08:41:52.939Z,24.86
2022-10-16T08:44:47.934Z,25.38
2022-10-16T08:47:20.634Z,24.92
2022-10-16T08:50:02.489Z,24.38
2022-10-16T08:52:43.574Z,24.47
2022-10-16T08:55:35.506Z,24.86
2022-10-16T08:58:02.650Z,24.79
2022-10-16T09:00:30.993Z,25.28
2022-10-16T09:03:32.248Z,25.22
2022-10-16T09:06:36.138Z,25.39
2022-10-16T09:09:25.158Z,25.34
2022-10-16T09:12:04.536Z,25.35
2022-10-16T09:15:30.618Z,25.24
2022-10-16T09:18:32.745Z,25.16
2022-10-16T09:21:31.652Z,25.43
2022-10-16T09:24:01.576Z,25.21
2022-10-16T09:26:28.610Z,24.73
2022-10-16T09:28:55.788Z,24.64
2022-10-16T09:31:24.476Z,25.36
2022-10-16T09:33:59.921Z,25.55
2022-10-16T09:36:29.764Z,25.30
2022-10-16T09:39:09.622Z,25.76
2022-10-16T09:41:40.923Z,25.58
2022-10-16T09:44:22.843Z,25.63
2022-10-16T09:46:50.083Z,25.49
2022-10-16T09:49:27.958Z,25.35
2022-10-16T09:52:06.593Z,25.75
2022-10-16T09:54:33.680Z,25.14
2022-10-16T09:57:14.535Z,25.43
2022-10-16T09:59:56.560Z,25.81
2022-10-16T10:02:37.178Z,25.64
2022-10-16T10:05:07.280Z,26.10
2022-10-16T10:07:44.139Z,25.78
2022-10-16T10:10:25.768Z,26.26
2022-10-16T10:12:53.073Z,25.73
2022-10-16T10:15:22.775Z,25.90
2022-10-16T10:17:58.190Z,26.25
2022-10-16T10:20:30.540Z,26.33
2022-10-16T10:22:58.017Z,26.05
2022-10-16T10:26:22.098Z,26.33
2022-10-16T10:29:21.387Z,26.69
2022-10-16T10:32:05.396Z,26.34
2022-10-16T10:35:13.381Z,26.81
2022-10-16T10:38:11.584Z,26.16
2022-10-16T10:41:27.906Z,26.75
2022-10-16T10:44:31.612Z,27.29
2022-10-16T10:47:20.401Z,27.66
2022-10-16T10:50:12.179Z,28.25
2022-10-16T10:52:42.665Z,27.92
2022-10-16T10:55:40.889Z,28.38
2022-10-16T10:58:59.401Z,28.18
2022-10-16T11:01:56.548Z,28.70
2022-10-16T11:05:07.051Z,28.65
2022-10-16T11:07:46.768Z,28.65
2022-10-16T11:10:21.809Z,28.87
2022-10-16T11:12:58.353Z,28.31
2022-10-16T11:15:39.025Z,28.06
2022-10-16T11:18:14.545Z,28.26
2022-10-16T11:20:53.634Z,28.06
2022-10-16T11:23:54.272Z,28.36
2022-10-16T11:26:26.565Z,30.65
2022-10-16T11:28:56.890Z,32.43
2022-10-16T11:31:50.488Z,33.37
2022-10-16T11:34:49.170Z,33.81
2022-10-16T11:37:25.271Z,36.25
2022-10-16T11:39:55.668Z,36.97
2022-10-16T11:42:31.858Z,35.05
2022-10-16T11:45:08.122Z,35.79
2022-10-16T11:47:59.083Z,36.37
2022-10-16T11:50:36.255Z,34.01
2022-10-16T11:54:00.839Z,37.37
2022-10-16T11:56:29.370Z,36.72
2022-10-16T11:59:11.349Z,36.95
2022-10-16T12:02:36.634Z,35.79
2022-10-16T12:05:37.714Z,35.06
2022-10-16T12:08:14.326Z,32.66
2022-10-16T12:10:45.100Z,32.99
2022-10-16T12:13:39.332Z,32.74
2022-10-16T12:16:15.293Z,31.83
2022-10-16T12:18:46.680Z,30.58
2022-10-16T12:21:16.934Z,30.40
2022-10-16T12:23:53.241Z,30.44
2022-10-16T12:26:33.457Z,30.47
2022-10-16T12:29:23.238Z,30.34
2022-10-16T12:31:57.600Z,29.93
2022-10-16T12:34:43.075Z,29.54
2022-10-16T12:37:27.778Z,30.94
2022-10-16T12:39:56.912Z,30.57
2022-10-16T12:42:28.837Z,30.12
2022-10-16T12:44:56.722Z,30.90
2022-10-16T12:47:50.610Z,29.58
2022-10-16T12:50:39.488Z,30.95
2022-10-16T12:53:39.671Z,32.09
2022-10-16T12:56:50.410Z,31.42
2022-10-16T12:59:32.682Z,31.13
2022-10-16T13:02:28.916Z,31.70
2022-10-16T13:05:42.792Z,32.14
2022-10-16T13:08:39.175Z,31.61
2022-10-16T13:11:49.608Z,29.20
2022-10-16T13:15:02.724Z,29.57
2022-10-16T13:18:24.981Z,29.47
2022-10-16T13:21:19.042Z,29.35
2022-10-16T13:24:11.360Z,28.65
2022-10-16T13:27:10.338Z,28.95
2022-10-16T13:29:37.506Z,28.88
2022-10-16T13:32:13.864Z,28.69
2022-10-16T13:34:50.403Z,28.79
2022-10-16T13:37:23.962Z,29.66
2022-10-16T13:39:53.733Z,28.54
2022-10-16T13:42:28.439Z,29.05
2022-10-16T13:44:57.322Z,28.60
2022-10-16T13:47:31.024Z,28.87
2022-10-16T13:50:05.006Z,28.62
2022-10-16T13:52:32.724Z,28.28
2022-10-16T13:55:01.979Z,28.01
2022-10-16T13:57:30.094Z,28.37
2022-10-16T13:59:57.164Z,28.21
2022-10-16T14:02:33.287Z,30.13
2022-10-16T14:05:00.312Z,29.08
2022-10-16T14:07:34.106Z,28.99
2022-10-16T14:10:23.284Z,29.25
2022-10-16T14:13:03.601Z,29.80
2022-10-16T14:15:33.254Z,29.86
2022-10-16T14:18:00.945Z,28.44
2022-10-16T14:20:32.321Z,29.39
2022-10-16T14:23:17.783Z,29.87
2022-10-16T14:25:44.750Z,28.81
2022-10-16T14:28:14.243Z,29.18
2022-10-16T14:30:55.205Z,28.26
2022-10-16T14:33:30.559Z,28.37
2022-10-16T14:36:17.658Z,28.77
2022-10-16T14:39:07.643Z,27.92
2022-10-16T14:41:47.231Z,28.57
2022-10-16T14:44:14.951Z,28.08
2022-10-16T14:46:43.994Z,28.55
2022-10-16T14:49:10.862Z,28.73
2022-10-16T14:51:42.011Z,28.75
2022-10-16T14:54:18.578Z,28.96
2022-10-16T14:56:54.765Z,28.83
2022-10-16T14:59:37.850Z,28.37
2022-10-16T15:02:20.529Z,27.96
2022-10-16T15:04:48.256Z,27.65
2022-10-16T15:07:15.930Z,27.97
2022-10-16T15:09:48.031Z,27.96
2022-10-16T15:12:17.526Z,27.84
2022-10-16T15:14:44.807Z,28.24
2022-10-16T15:17:12.277Z,27.81
2022-10-16T15:19:39.418Z,28.24
2022-10-16T15:22:06.492Z,27.91
2022-10-16T15:24:34.085Z,27.82
2022-10-16T15:27:01.733Z,27.69
2022-10-16T15:29:29.233Z,28.07
2022-10-16T15:31:56.310Z,28.27
2022-10-16T15:34:23.292Z,28.65
2022-10-16T15:36:50.263Z,28.42
2022-10-16T15:39:20.214Z,28.85
2022-10-16T15:41:51.867Z,28.45
2022-10-16T15:44:19.507Z,28.46
2022-10-16T15:46:47.274Z,28.26
2022-10-16T15:49:14.763Z,27.72
2022-10-16T15:51:42.979Z,27.63
2022-10-16T15:54:10.714Z,28.00
2022-10-16T15:56:38.127Z,27.90
2022-10-16T15:59:06.406Z,28.29
2022-10-16T16:01:37.347Z,27.90
2022-10-16T16:04:10.950Z,27.85
2022-10-16T16:06:45.950Z,27.64
2022-10-16T16:09:14.653Z,28.02
2022-10-16T16:11:42.499Z,27.39
2022-10-16T16:14:14.330Z,27.27
2022-10-16T16:16:42.331Z,27.34
2022-10-16T16:19:11.734Z,27.66
2022-10-16T16:21:39.743Z,28.36
2022-10-16T16:24:08.953Z,28.20
2022-10-16T16:26:40.181Z,28.22
2022-10-16T16:29:08.005Z,28.40
2022-10-16T16:31:35.650Z,28.28
2022-10-16T16:34:03.589Z,28.29
2022-10-16T16:36:30.847Z,28.03
2022-10-16T16:38:59.060Z,27.95
2022-10-16T16:41:29.490Z,28.20
2022-10-16T16:43:56.968Z,28.11
2022-10-16T16:46:23.906Z,27.91
2022-10-16T16:48:52.672Z,27.88
2022-10-16T16:51:20.800Z,27.84
2022-10-16T16:53:51.100Z,27.93
2022-10-16T16:56:19.226Z,27.81
2022-10-16T16:58:48.097Z,27.80
2022-10-16T17:01:19.972Z,27.52
2022-10-16T17:03:50.204Z,27.92
2022-10-16T17:06:20.405Z,27.87
2022-10-16T17:08:49.779Z,27.85
2022-10-16T17:11:21.816Z,27.91
2022-10-16T17:13:53.890Z,27.53
2022-10-16T17:16:27.135Z,27.62
2022-10-16T17:18:54.543Z,27.59
2022-10-16T17:21:22.788Z,27.41
2022-10-16T17:23:53.345Z,27.37
2022-10-16T17:26:20.462Z,27.19
2022-10-16T17:28:55.381Z,27.49
2022-10-16T17:31:27.479Z,27.61
2022-10-16T17:33:54.706Z,27.13
2022-10-16T17:36:23.098Z,27.57
2022-10-16T17:38:50.388Z,27.37
2022-10-16T17:41:29.452Z,27.55
2022-10-16T17:43:56.604Z,27.22
2022-10-16T17:46:24.815Z,27.36
2022-10-16T17:48:55.718Z,27.24
2022-10-16T17:51:29.476Z,27.30
2022-10-16T17:53:59.807Z,26.87
2022-10-16T17:56:27.230Z,27.06
2022-10-16T17:59:00.286Z,27.13
2022-10-16T18:01:40.616Z,27.11
2022-10-16T18:04:12.900Z,27.23
2022-10-16T18:06:42.805Z,26.95
2022-10-16T18:09:12.036Z,27.06
2022-10-16T18:11:39.058Z,26.76
2022-10-16T18:14:06.533Z,26.58
2022-10-16T18:16:36.007Z,26.60
2022-10-16T18:19:03.471Z,26.46
2022-10-16T18:21:30.780Z,26.39
2022-10-16T18:23:59.718Z,26.77
2022-10-16T18:26:27.099Z,26.36
2022-10-16T18:28:57.071Z,26.56
2022-10-16T18:31:26.334Z,26.50
2022-10-16T18:33:54.435Z,26.16
2022-10-16T18:36:32.457Z,26.09
2022-10-16T18:39:03.423Z,26.04
2022-10-16T18:41:32.644Z,25.76
2022-10-16T18:43:59.608Z,25.67
2022-10-16T18:46:27.048Z,25.96
2022-10-16T18:48:56.478Z,26.27
2022-10-16T18:51:33.770Z,26.38
2022-10-16T18:54:04.254Z,26.02
2022-10-16T18:56:32.305Z,25.85
2022-10-16T18:59:01.410Z,25.84
2022-10-16T19:01:30.807Z,25.84
2022-10-16T19:04:11.407Z,26.04
2022-10-16T19:06:49.464Z,25.93
2022-10-16T19:09:18.847Z,25.99
2022-10-16T19:11:46.133Z,25.68
2022-10-16T19:14:15.188Z,25.87
2022-10-16T19:16:43.084Z,25.82
2022-10-16T19:19:15.080Z,25.73
2022-10-16T19:21:43.377Z,25.55
2022-10-16T19:24:14.407Z,25.65
2022-10-16T19:26:42.251Z,25.44
2022-10-16T19:29:10.683Z,25.39
2022-10-16T19:31:38.029Z,25.12
2022-10-16T19:34:07.594Z,25.49
2022-10-16T19:36:37.060Z,25.62
2022-10-16T19:39:12.752Z,25.15
2022-10-16T19:41:39.929Z,25.23
2022-10-16T19:44:10.928Z,25.54
2022-10-16T19:46:38.328Z,25.34
2022-10-16T19:49:09.947Z,25.35
2022-10-16T19:51:38.211Z,25.37
2022-10-16T19:54:11.434Z,25.08
2022-10-16T19:56:38.871Z,25.42
2022-10-16T19:59:08.694Z,25.62
2022-10-16T20:01:35.867Z,25.43
2022-10-16T20:04:05.160Z,25.47
2022-10-16T20:06:32.153Z,25.41
2022-10-16T20:08:59.083Z,25.47
2022-10-16T20:11:32.976Z,25.19
2022-10-16T20:14:00.674Z,25.14
2022-10-16T20:16:29.330Z,25.44
2022-10-16T20:18:57.246Z,25.48
2022-10-16T20:21:30.870Z,25.30
2022-10-16T20:24:00.537Z,25.11
2022-10-16T20:26:28.358Z,25.34
2022-10-16T20:28:56.283Z,25.53
2022-10-16T20:31:27.066Z,25.22
2022-10-16T20:33:56.768Z,25.08
2022-10-16T20:36:26.053Z,25.04
2022-10-16T20:38:54.117Z,25.54
2022-10-16T20:41:23.829Z,25.05
2022-10-16T20:43:52.771Z,24.81
2022-10-16T20:46:25.834Z,25.02
2022-10-16T20:49:06.263Z,24.90
2022-10-16T20:51:38.947Z,24.70
2022-10-16T20:54:06.929Z,24.87
2022-10-16T20:56:36.713Z,25.09
2022-10-16T20:59:10.746Z,24.99
2022-10-16T21:01:38.088Z,24.83
2022-10-16T21:04:08.365Z,25.12
2022-10-16T21:06:44.192Z,25.25
2022-10-16T21:09:11.298Z,25.03
2022-10-16T21:11:38.826Z,25.09
2022-10-16T21:14:08.705Z,25.32
2022-10-16T21:16:36.138Z,25.29
2022-10-16T21:19:03.825Z,25.20
2022-10-16T21:21:34.325Z,25.21
2022-10-16T21:24:01.739Z,25.22
2022-10-16T21:26:30.508Z,25.30
2022-10-16T21:29:07.248Z,25.34
2022-10-16T21:31:35.218Z,25.20
2022-10-16T21:34:02.781Z,25.13
2022-10-16T21:36:37.348Z,25.22
2022-10-16T21:39:16.703Z,25.43
2022-10-16T21:41:47.619Z,25.31
2022-10-16T21:44:14.747Z,25.17
2022-10-16T21:46:44.120Z,25.07
2022-10-16T21:49:15.209Z,25.08
2022-10-16T21:51:46.521Z,24.92
2022-10-16T21:54:17.897Z,25.01
2022-10-16T21:56:45.310Z,24.81
2022-10-16T21:59:14.107Z,25.39
2022-10-16T22:01:41.750Z,25.31
2022-10-16T22:04:17.561Z,25.11
2022-10-16T22:06:44.905Z,25.08
2022-10-16T22:09:14.411Z,25.23
2022-10-16T22:11:44.664Z,24.73
2022-10-16T22:14:18.024Z,25.01
2022-10-16T22:16:46.319Z,24.86
2022-10-16T22:19:15.348Z,25.27
2022-10-16T22:21:43.918Z,25.16
2022-10-16T22:24:10.972Z,24.95
2022-10-16T22:26:39.317Z,24.89
2022-10-16T22:29:07.335Z,24.88
2022-10-16T22:31:35.086Z,24.87
2022-10-16T22:34:04.075Z,24.76
2022-10-16T22:36:32.026Z,24.83
2022-10-16T22:38:59.636Z,24.48
2022-10-16T22:41:26.638Z,24.68
2022-10-16T22:43:54.132Z,24.66
2022-10-16T22:46:29.121Z,24.72
2022-10-16T22:48:57.219Z,24.29
2022-10-16T22:51:26.545Z,24.89
2022-10-16T22:53:53.453Z,24.45
2022-10-16T22:56:22.055Z,24.63
2022-10-16T22:58:49.551Z,24.35
2022-10-16T23:01:25.857Z,24.57
2022-10-16T23:03:53.016Z,24.42
2022-10-16T23:06:20.001Z,24.29
2022-10-16T23:08:54.753Z,24.00
2022-10-16T23:11:22.030Z,23.84
2022-10-16T23:13:49.277Z,23.78
2022-10-16T23:16:19.146Z,24.03
2022-10-16T23:18:46.775Z,23.81
2022-10-16T23:21:23.532Z,23.81
2022-10-16T23:23:53.048Z,23.79
2022-10-16T23:26:25.199Z,24.02
2022-10-16T23:28:52.414Z,23.82
2022-10-16T23:31:19.829Z,24.01
2022-10-16T23:33:46.805Z,23.72
2022-10-16T23:36:18.115Z,23.88
2022-10-16T23:38:45.182Z,23.95
2022-10-16T23:41:12.906Z,24.08
2022-10-16T23:43:40.506Z,24.18
2022-10-16T23:46:09.808Z,24.07
2022-10-16T23:48:39.313Z,23.68
2022-10-16T23:51:07.886Z,23.89
2022-10-16T23:53:35.365Z,23.72
2022-10-16T23:56:02.558Z,23.58
2022-10-16T23:58:29.606Z,23.48
